Terminal Aerodrome Forecast
Issued by NWS

Current Version | Previous Version | Text Only | Print | Product List | Glossary On
Versions: 1 2 3 4 5 6 7 8 9 10 11 12 13 14 15 16 17 18
000
FTUS46 KOTX 191135
TAFMWH
TAF
KMWH 191135Z 1912/2012 18017G27KT P6SM BKN090
     FM191500 18014G21KT P6SM OVC070
     FM192000 20018G27KT P6SM -RA OVC050
     FM200300 18009KT P6SM -RA SCT030 OVC050
     FM200600 20012G21KT P6SM -RA OVC060=

USA.gov is the U.S. government's official web portal to all federal, state and local government web resources and services.